sensor_id;sensor_type;location;lat;lon;timestamp;pressure;altitude;pressure_sealevel;temperature;humidity
31761;BME280;18335;51.486;7.562;2024-01-15T00:01:49;98815.25;;;8.36;100.00
31761;BME280;18335;51.486;7.562;2024-01-15T00:04:15;98816.25;;;7.60;100.00
31761;BME280;18335;51.486;7.562;2024-01-15T00:06:42;98806.56;;;7.80;100.00
31761;BME280;18335;51.486;7.562;2024-01-15T00:09:09;98810.63;;;8.95;100.00
31761;BME280;18335;51.486;7.562;2024-01-15T00:11:36;98806.81;;;7.48;100.00
31761;BME280;18335;51.486;7.562;2024-01-15T00:14:02;98799.38;;;8.83;100.00
31761;BME280;18335;51.486;7.562;2024-01-15T00:16:29;98798.88;;;8.95;100.00
31761;BME280;18335;51.486;7.562;2024-01-15T00:18:57;98801.06;;;8.55;100.00
31761;BME280;18335;51.486;7.562;2024-01-15T00:21:24;98781.94;;;8.63;100.00
31761;BME280;18335;51.486;7.562;2024-01-15T00:23:52;98783.53;;;8.28;100.00
31761;BME280;18335;51.486;7.562;2024-01-15T00:26:19;98780.81;;;8.58;100.00
31761;BME280;18335;51.486;7.562;2024-01-15T00:28:46;98775.63;;;8.19;100.00
31761;BME280;18335;51.486;7.562;2024-01-15T00:31:12;98781.19;;;8.69;100.00
31761;BME280;18335;51.486;7.562;2024-01-15T00:33:39;98781.94;;;8.34;100.00
31761;BME280;18335;51.486;7.562;2024-01-15T00:36:07;98785.50;;;6.92;100.00
31761;BME280;18335;51.486;7.562;2024-01-15T00:38:34;98769.19;;;8.20;100.00
31761;BME280;18335;51.486;7.562;2024-01-15T00:41:01;98769.19;;;8.49;100.00
31761;BME280;18335;51.486;7.562;2024-01-15T00:43:28;98775.66;;;8.33;100.00
31761;BME280;18335;51.486;7.562;2024-01-15T00:45:55;98772.56;;;8.51;100.00
31761;BME280;18335;51.486;7.562;2024-01-15T00:48:21;98781.88;;;8.57;100.00
31761;BME280;18335;51.486;7.562;2024-01-15T00:50:48;98776.59;;;8.26;100.00
31761;BME280;18335;51.486;7.562;2024-01-15T00:53:16;98777.09;;;8.07;100.00
31761;BME280;18335;51.486;7.562;2024-01-15T00:55:42;98767.81;;;9.04;100.00
31761;BME280;18335;51.486;7.562;2024-01-15T00:58:10;98771.94;;;8.49;100.00
31761;BME280;18335;51.486;7.562;2024-01-15T01:00:36;98775.06;;;8.09;100.00
31761;BME280;18335;51.486;7.562;2024-01-15T01:03:03;98773.69;;;8.71;100.00
31761;BME280;18335;51.486;7.562;2024-01-15T01:05:30;98779.69;;;7.86;100.00
31761;BME280;18335;51.486;7.562;2024-01-15T01:07:57;98779.53;;;8.39;100.00
31761;BME280;18335;51.486;7.562;2024-01-15T01:10:25;98776.00;;;8.16;100.00
31761;BME280;18335;51.486;7.562;2024-01-15T01:12:53;98781.09;;;8.33;100.00
31761;BME280;18335;51.486;7.562;2024-01-15T01:15:20;98776.06;;;8.60;100.00
31761;BME280;18335;51.486;7.562;2024-01-15T01:17:46;98769.44;;;8.25;100.00
31761;BME280;18335;51.486;7.562;2024-01-15T01:20:13;98755.78;;;9.13;100.00
31761;BME280;18335;51.486;7.562;2024-01-15T01:22:41;98775.56;;;8.71;100.00
31761;BME280;18335;51.486;7.562;2024-01-15T01:25:07;98767.81;;;8.53;100.00
31761;BME280;18335;51.486;7.562;2024-01-15T01:27:36;98764.63;;;8.35;100.00
31761;BME280;18335;51.486;7.562;2024-01-15T01:30:04;98776.81;;;8.68;100.00
31761;BME280;18335;51.486;7.562;2024-01-15T01:32:31;98777.94;;;8.59;100.00
31761;BME280;18335;51.486;7.562;2024-01-15T01:34:57;98771.53;;;9.17;100.00
31761;BME280;18335;51.486;7.562;2024-01-15T01:37:24;98780.50;;;8.97;100.00
31761;BME280;18335;51.486;7.562;2024-01-15T01:39:51;98784.66;;;8.78;100.00
31761;BME280;18335;51.486;7.562;2024-01-15T01:42:17;98769.91;;;9.65;100.00
31761;BME280;18335;51.486;7.562;2024-01-15T01:44:45;98769.41;;;9.34;100.00
31761;BME280;18335;51.486;7.562;2024-01-15T01:47:14;98770.75;;;8.87;100.00
31761;BME280;18335;51.486;7.562;2024-01-15T01:49:41;98769.09;;;8.86;100.00
31761;BME280;18335;51.486;7.562;2024-01-15T01:52:09;98760.00;;;8.21;100.00
31761;BME280;18335;51.486;7.562;2024-01-15T01:54:36;98768.25;;;9.22;100.00
31761;BME280;18335;51.486;7.562;2024-01-15T01:57:05;98765.47;;;9.01;100.00
31761;BME280;18335;51.486;7.562;2024-01-15T01:59:34;98751.97;;;9.28;100.00
31761;BME280;18335;51.486;7.562;2024-01-15T02:02:03;98747.38;;;9.50;100.00
31761;BME280;18335;51.486;7.562;2024-01-15T02:04:31;98751.53;;;8.89;100.00
31761;BME280;18335;51.486;7.562;2024-01-15T02:06:59;98756.72;;;9.05;100.00
31761;BME280;18335;51.486;7.562;2024-01-15T02:09:25;98753.66;;;8.94;100.00
31761;BME280;18335;51.486;7.562;2024-01-15T02:11:52;98758.16;;;8.36;100.00
31761;BME280;18335;51.486;7.562;2024-01-15T02:14:19;98754.28;;;8.74;100.00
31761;BME280;18335;51.486;7.562;2024-01-15T02:16:47;98757.84;;;8.60;100.00
31761;BME280;18335;51.486;7.562;2024-01-15T02:19:18;98765.50;;;8.86;100.00
31761;BME280;18335;51.486;7.562;2024-01-15T02:21:45;98758.81;;;8.38;100.00
31761;BME280;18335;51.486;7.562;2024-01-15T02:24:13;98763.84;;;8.12;100.00
31761;BME280;18335;51.486;7.562;2024-01-15T02:26:40;98769.81;;;8.22;100.00
31761;BME280;18335;51.486;7.562;2024-01-15T02:29:07;98770.13;;;8.71;100.00
31761;BME280;18335;51.486;7.562;2024-01-15T02:31:34;98758.13;;;8.80;100.00
31761;BME280;18335;51.486;7.562;2024-01-15T02:34:01;98758.81;;;8.38;100.00
31761;BME280;18335;51.486;7.562;2024-01-15T02:36:28;98765.84;;;8.32;100.00
31761;BME280;18335;51.486;7.562;2024-01-15T02:38:55;98755.16;;;8.31;100.00
31761;BME280;18335;51.486;7.562;2024-01-15T02:41:23;98762.47;;;8.45;100.00
31761;BME280;18335;51.486;7.562;2024-01-15T02:43:49;98767.00;;;8.88;100.00
31761;BME280;18335;51.486;7.562;2024-01-15T02:46:16;98771.13;;;8.84;100.00
31761;BME280;18335;51.486;7.562;2024-01-15T02:48:43;98768.66;;;8.39;100.00
31761;BME280;18335;51.486;7.562;2024-01-15T02:51:09;98770.69;;;8.81;100.00
31761;BME280;18335;51.486;7.562;2024-01-15T02:53:36;98756.44;;;9.15;100.00
31761;BME280;18335;51.486;7.562;2024-01-15T02:56:03;98761.81;;;9.51;100.00
31761;BME280;18335;51.486;7.562;2024-01-15T02:58:31;98763.59;;;9.01;100.00
31761;BME280;18335;51.486;7.562;2024-01-15T03:00:58;98746.72;;;9.48;100.00
31761;BME280;18335;51.486;7.562;2024-01-15T03:03:25;98757.28;;;9.58;100.00
31761;BME280;18335;51.486;7.562;2024-01-15T03:05:52;98748.81;;;9.25;100.00
31761;BME280;18335;51.486;7.562;2024-01-15T03:08:19;98745.78;;;8.33;100.00
31761;BME280;18335;51.486;7.562;2024-01-15T03:10:48;98749.44;;;7.89;100.00
31761;BME280;18335;51.486;7.562;2024-01-15T03:13:14;98748.13;;;9.23;100.00
31761;BME280;18335;51.486;7.562;2024-01-15T03:15:43;98757.00;;;8.30;100.00
31761;BME280;18335;51.486;7.562;2024-01-15T03:18:10;98759.81;;;9.17;100.00
31761;BME280;18335;51.486;7.562;2024-01-15T03:20:36;98762.84;;;8.57;100.00
31761;BME280;18335;51.486;7.562;2024-01-15T03:23:03;98765.16;;;8.74;100.00
31761;BME280;18335;51.486;7.562;2024-01-15T03:25:30;98773.00;;;8.11;100.00
31761;BME280;18335;51.486;7.562;2024-01-15T03:27:56;98766.84;;;8.75;100.00
31761;BME280;18335;51.486;7.562;2024-01-15T03:30:23;98763.69;;;9.29;100.00
31761;BME280;18335;51.486;7.562;2024-01-15T03:32:51;98762.09;;;8.63;100.00
31761;BME280;18335;51.486;7.562;2024-01-15T03:35:18;98760.03;;;9.01;100.00
31761;BME280;18335;51.486;7.562;2024-01-15T03:37:44;98758.31;;;8.05;100.00
31761;BME280;18335;51.486;7.562;2024-01-15T03:40:12;98762.78;;;8.13;100.00
31761;BME280;18335;51.486;7.562;2024-01-15T03:42:38;98767.13;;;8.80;100.00
31761;BME280;18335;51.486;7.562;2024-01-15T03:45:06;98769.31;;;8.41;100.00
31761;BME280;18335;51.486;7.562;2024-01-15T03:47:32;98779.06;;;7.98;100.00
31761;BME280;18335;51.486;7.562;2024-01-15T03:50:00;98769.09;;;8.57;100.00
31761;BME280;18335;51.486;7.562;2024-01-15T03:52:27;98756.28;;;9.02;100.00
31761;BME280;18335;51.486;7.562;2024-01-15T03:54:54;98753.81;;;8.27;100.00
31761;BME280;18335;51.486;7.562;2024-01-15T03:57:21;98754.66;;;8.71;100.00
31761;BME280;18335;51.486;7.562;2024-01-15T03:59:47;98751.09;;;8.71;100.00
31761;BME280;18335;51.486;7.562;2024-01-15T04:02:14;98760.88;;;8.65;100.00
31761;BME280;18335;51.486;7.562;2024-01-15T04:04:42;98755.03;;;8.68;100.00
31761;BME280;18335;51.486;7.562;2024-01-15T04:07:10;98757.16;;;8.87;100.00
31761;BME280;18335;51.486;7.562;2024-01-15T04:09:37;98747.31;;;7.99;100.00
31761;BME280;18335;51.486;7.562;2024-01-15T04:12:04;98755.34;;;8.59;100.00
31761;BME280;18335;51.486;7.562;2024-01-15T04:14:31;98739.00;;;8.15;100.00
31761;BME280;18335;51.486;7.562;2024-01-15T04:16:58;98731.56;;;9.39;100.00
31761;BME280;18335;51.486;7.562;2024-01-15T04:19:25;98735.91;;;8.76;100.00
31761;BME280;18335;51.486;7.562;2024-01-15T04:21:51;98722.66;;;9.09;100.00
31761;BME280;18335;51.486;7.562;2024-01-15T04:24:19;98718.31;;;8.28;100.00
31761;BME280;18335;51.486;7.562;2024-01-15T04:26:46;98704.47;;;9.10;100.00
31761;BME280;18335;51.486;7.562;2024-01-15T04:29:13;98711.31;;;9.06;100.00
31761;BME280;18335;51.486;7.562;2024-01-15T04:31:40;98716.59;;;8.71;100.00
31761;BME280;18335;51.486;7.562;2024-01-15T04:34:06;98708.31;;;8.29;100.00
31761;BME280;18335;51.486;7.562;2024-01-15T04:36:38;98705.00;;;8.99;100.00
31761;BME280;18335;51.486;7.562;2024-01-15T04:39:05;98712.44;;;8.75;100.00
31761;BME280;18335;51.486;7.562;2024-01-15T04:41:33;98716.84;;;8.76;100.00
31761;BME280;18335;51.486;7.562;2024-01-15T04:44:00;98710.75;;;9.10;100.00
31761;BME280;18335;51.486;7.562;2024-01-15T04:46:26;98701.84;;;8.80;100.00
31761;BME280;18335;51.486;7.562;2024-01-15T04:48:53;98702.41;;;8.76;100.00
31761;BME280;18335;51.486;7.562;2024-01-15T04:51:20;98700.34;;;9.14;100.00
31761;BME280;18335;51.486;7.562;2024-01-15T04:53:47;98687.50;;;8.51;100.00
31761;BME280;18335;51.486;7.562;2024-01-15T04:56:13;98685.34;;;9.45;100.00
31761;BME280;18335;51.486;7.562;2024-01-15T04:58:41;98677.91;;;9.33;100.00
31761;BME280;18335;51.486;7.562;2024-01-15T05:01:09;98684.81;;;8.72;100.00
31761;BME280;18335;51.486;7.562;2024-01-15T05:03:35;98680.50;;;8.99;100.00
31761;BME280;18335;51.486;7.562;2024-01-15T05:06:02;98682.78;;;8.15;100.00
31761;BME280;18335;51.486;7.562;2024-01-15T05:08:29;98684.69;;;8.80;100.00
31761;BME280;18335;51.486;7.562;2024-01-15T05:10:56;98677.00;;;8.83;100.00
31761;BME280;18335;51.486;7.562;2024-01-15T05:13:22;98684.19;;;8.91;100.00
31761;BME280;18335;51.486;7.562;2024-01-15T05:15:50;98681.94;;;7.86;100.00
31761;BME280;18335;51.486;7.562;2024-01-15T05:18:17;98682.00;;;9.22;100.00
31761;BME280;18335;51.486;7.562;2024-01-15T05:20:44;98680.16;;;8.87;100.00
31761;BME280;18335;51.486;7.562;2024-01-15T05:23:11;98681.53;;;8.98;100.00
31761;BME280;18335;51.486;7.562;2024-01-15T05:25:39;98682.47;;;8.90;100.00
31761;BME280;18335;51.486;7.562;2024-01-15T05:28:06;98682.47;;;8.54;100.00
31761;BME280;18335;51.486;7.562;2024-01-15T05:30:33;98669.34;;;9.36;100.00
31761;BME280;18335;51.486;7.562;2024-01-15T05:33:01;98685.56;;;9.02;100.00
31761;BME280;18335;51.486;7.562;2024-01-15T05:35:28;98695.66;;;8.36;100.00
31761;BME280;18335;51.486;7.562;2024-01-15T05:37:55;98685.41;;;8.53;100.00
31761;BME280;18335;51.486;7.562;2024-01-15T05:40:21;98673.63;;;9.24;100.00
31761;BME280;18335;51.486;7.562;2024-01-15T05:42:48;98682.81;;;8.80;100.00
31761;BME280;18335;51.486;7.562;2024-01-15T05:45:15;98671.84;;;8.38;100.00
31761;BME280;18335;51.486;7.562;2024-01-15T05:47:42;98677.69;;;8.71;100.00
31761;BME280;18335;51.486;7.562;2024-01-15T05:50:10;98666.38;;;9.31;100.00
31761;BME280;18335;51.486;7.562;2024-01-15T05:52:38;98669.34;;;9.15;100.00
31761;BME280;18335;51.486;7.562;2024-01-15T05:55:05;98677.00;;;8.48;100.00
31761;BME280;18335;51.486;7.562;2024-01-15T05:57:32;98675.47;;;8.60;100.00
31761;BME280;18335;51.486;7.562;2024-01-15T05:59:59;98672.13;;;9.00;100.00
31761;BME280;18335;51.486;7.562;2024-01-15T06:02:26;98677.00;;;8.48;100.00
31761;BME280;18335;51.486;7.562;2024-01-15T06:04:53;98669.03;;;9.03;100.00
31761;BME280;18335;51.486;7.562;2024-01-15T06:07:22;98668.25;;;8.52;100.00
31761;BME280;18335;51.486;7.562;2024-01-15T06:09:48;98686.59;;;7.62;100.00
31761;BME280;18335;51.486;7.562;2024-01-15T06:12:15;98671.00;;;9.58;100.00
31761;BME280;18335;51.486;7.562;2024-01-15T06:14:42;98667.06;;;9.39;100.00
31761;BME280;18335;51.486;7.562;2024-01-15T06:17:09;98662.16;;;8.86;100.00
31761;BME280;18335;51.486;7.562;2024-01-15T06:19:36;98660.25;;;9.29;100.00
31761;BME280;18335;51.486;7.562;2024-01-15T06:22:03;98649.66;;;9.13;100.00
31761;BME280;18335;51.486;7.562;2024-01-15T06:24:31;98649.13;;;9.73;100.00
31761;BME280;18335;51.486;7.562;2024-01-15T06:26:59;98649.84;;;9.32;100.00
31761;BME280;18335;51.486;7.562;2024-01-15T06:29:26;98649.81;;;9.54;100.00
31761;BME280;18335;51.486;7.562;2024-01-15T06:31:53;98649.94;;;9.45;100.00
31761;BME280;18335;51.486;7.562;2024-01-15T06:34:20;98649.72;;;9.19;100.00
31761;BME280;18335;51.486;7.562;2024-01-15T06:36:46;98649.91;;;9.39;100.00
31761;BME280;18335;51.486;7.562;2024-01-15T06:39:13;98640.84;;;8.03;100.00
31761;BME280;18335;51.486;7.562;2024-01-15T06:41:41;98654.41;;;8.18;100.00
31761;BME280;18335;51.486;7.562;2024-01-15T06:44:09;98643.81;;;8.73;100.00
31761;BME280;18335;51.486;7.562;2024-01-15T06:46:36;98639.50;;;9.77;100.00
31761;BME280;18335;51.486;7.562;2024-01-15T06:49:03;98650.31;;;7.93;100.00
31761;BME280;18335;51.486;7.562;2024-01-15T06:51:30;98639.69;;;9.20;100.00
31761;BME280;18335;51.486;7.562;2024-01-15T06:53:57;98647.97;;;9.12;100.00
31761;BME280;18335;51.486;7.562;2024-01-15T06:56:23;98648.50;;;8.79;100.00
31761;BME280;18335;51.486;7.562;2024-01-15T06:58:51;98652.88;;;7.42;100.00
31761;BME280;18335;51.486;7.562;2024-01-15T07:01:18;98653.94;;;9.01;100.00
31761;BME280;18335;51.486;7.562;2024-01-15T07:03:45;98662.50;;;8.62;100.00
31761;BME280;18335;51.486;7.562;2024-01-15T07:06:12;98660.31;;;9.08;100.00
31761;BME280;18335;51.486;7.562;2024-01-15T07:08:39;98650.19;;;9.78;100.00
31761;BME280;18335;51.486;7.562;2024-01-15T07:11:07;98661.31;;;8.85;100.00
31761;BME280;18335;51.486;7.562;2024-01-15T07:13:35;98667.38;;;8.66;100.00
31761;BME280;18335;51.486;7.562;2024-01-15T07:16:04;98666.78;;;8.06;100.00
31761;BME280;18335;51.486;7.562;2024-01-15T07:18:30;98654.53;;;8.60;100.00
31761;BME280;18335;51.486;7.562;2024-01-15T07:20:57;98650.25;;;8.51;100.00
31761;BME280;18335;51.486;7.562;2024-01-15T07:23:24;98660.22;;;8.80;100.00
31761;BME280;18335;51.486;7.562;2024-01-15T07:25:50;98648.94;;;9.53;100.00
31761;BME280;18335;51.486;7.562;2024-01-15T07:28:18;98655.00;;;8.64;100.00
31761;BME280;18335;51.486;7.562;2024-01-15T07:30:45;98655.94;;;9.34;100.00
31761;BME280;18335;51.486;7.562;2024-01-15T07:33:13;98660.22;;;8.15;100.00
31761;BME280;18335;51.486;7.562;2024-01-15T07:35:40;98654.91;;;8.93;100.00
31761;BME280;18335;51.486;7.562;2024-01-15T07:38:06;98662.94;;;8.44;100.00
31761;BME280;18335;51.486;7.562;2024-01-15T07:40:34;98664.13;;;8.92;100.00
31761;BME280;18335;51.486;7.562;2024-01-15T07:43:00;98659.47;;;7.77;100.00
31761;BME280;18335;51.486;7.562;2024-01-15T07:45:27;98654.78;;;8.80;100.00
31761;BME280;18335;51.486;7.562;2024-01-15T07:47:54;98666.31;;;8.17;100.00
31761;BME280;18335;51.486;7.562;2024-01-15T07:50:22;98650.75;;;9.39;100.00
31761;BME280;18335;51.486;7.562;2024-01-15T07:52:48;98659.97;;;8.60;100.00
31761;BME280;18335;51.486;7.562;2024-01-15T07:55:15;98653.22;;;9.34;100.00
31761;BME280;18335;51.486;7.562;2024-01-15T07:57:42;98649.13;;;9.73;100.00
31761;BME280;18335;51.486;7.562;2024-01-15T08:00:09;98651.19;;;9.43;100.00
31761;BME280;18335;51.486;7.562;2024-01-15T08:02:36;98640.38;;;9.56;100.00
31761;BME280;18335;51.486;7.562;2024-01-15T08:05:03;98646.22;;;9.25;100.00
31761;BME280;18335;51.486;7.562;2024-01-15T08:07:31;98646.03;;;9.27;100.00
31761;BME280;18335;51.486;7.562;2024-01-15T08:09:58;98652.50;;;9.26;100.00
31761;BME280;18335;51.486;7.562;2024-01-15T08:12:24;98644.88;;;9.64;100.00
31761;BME280;18335;51.486;7.562;2024-01-15T08:14:51;98651.50;;;9.55;100.00
31761;BME280;18335;51.486;7.562;2024-01-15T08:17:17;98647.81;;;8.56;100.00
31761;BME280;18335;51.486;7.562;2024-01-15T08:19:44;98648.25;;;8.96;100.00
31761;BME280;18335;51.486;7.562;2024-01-15T08:22:11;98645.16;;;8.99;100.00
31761;BME280;18335;51.486;7.562;2024-01-15T08:24:39;98644.63;;;9.10;100.00
31761;BME280;18335;51.486;7.562;2024-01-15T08:27:06;98644.84;;;8.72;100.00
31761;BME280;18335;51.486;7.562;2024-01-15T08:29:33;98636.84;;;8.85;100.00
31761;BME280;18335;51.486;7.562;2024-01-15T08:32:00;98629.31;;;9.58;100.00
31761;BME280;18335;51.486;7.562;2024-01-15T08:34:27;98635.88;;;8.72;100.00
31761;BME280;18335;51.486;7.562;2024-01-15T08:36:53;98639.41;;;9.15;100.00
31761;BME280;18335;51.486;7.562;2024-01-15T08:39:20;98643.91;;;8.80;100.00
31761;BME280;18335;51.486;7.562;2024-01-15T08:41:48;98639.41;;;9.15;100.00
31761;BME280;18335;51.486;7.562;2024-01-15T08:44:15;98634.75;;;9.30;100.00
31761;BME280;18335;51.486;7.562;2024-01-15T08:46:42;98633.16;;;9.42;100.00
31761;BME280;18335;51.486;7.562;2024-01-15T08:49:08;98639.25;;;9.72;100.00
31761;BME280;18335;51.486;7.562;2024-01-15T08:51:35;98638.94;;;9.05;100.00
31761;BME280;18335;51.486;7.562;2024-01-15T08:54:03;98645.22;;;8.69;100.00
31761;BME280;18335;51.486;7.562;2024-01-15T08:56:30;98645.34;;;9.46;100.00
31761;BME280;18335;51.486;7.562;2024-01-15T08:58:58;98656.31;;;8.68;100.00
31761;BME280;18335;51.486;7.562;2024-01-15T09:01:25;98658.53;;;8.79;100.00
31761;BME280;18335;51.486;7.562;2024-01-15T09:03:52;98655.78;;;9.42;100.00
31761;BME280;18335;51.486;7.562;2024-01-15T09:06:18;98651.31;;;10.25;100.00
31761;BME280;18335;51.486;7.562;2024-01-15T09:08:46;98644.22;;;9.13;100.00
31761;BME280;18335;51.486;7.562;2024-01-15T09:11:12;98650.00;;;9.52;100.00
31761;BME280;18335;51.486;7.562;2024-01-15T09:13:39;98649.25;;;10.27;100.00
31761;BME280;18335;51.486;7.562;2024-01-15T09:16:07;98669.94;;;8.89;100.00
31761;BME280;18335;51.486;7.562;2024-01-15T09:18:34;98665.66;;;8.80;100.00
31761;BME280;18335;51.486;7.562;2024-01-15T09:21:03;98659.22;;;9.51;100.00
31761;BME280;18335;51.486;7.562;2024-01-15T09:23:30;98665.41;;;8.75;100.00
31761;BME280;18335;51.486;7.562;2024-01-15T09:25:57;98664.22;;;9.26;100.00
31761;BME280;18335;51.486;7.562;2024-01-15T09:28:24;98666.16;;;8.33;100.00
31761;BME280;18335;51.486;7.562;2024-01-15T09:30:50;98668.34;;;8.59;100.00
31761;BME280;18335;51.486;7.562;2024-01-15T09:33:18;98661.78;;;9.10;100.00
31761;BME280;18335;51.486;7.562;2024-01-15T09:35:45;98670.84;;;8.60;100.00
31761;BME280;18335;51.486;7.562;2024-01-15T09:38:12;98669.16;;;8.95;100.00
31761;BME280;18335;51.486;7.562;2024-01-15T09:40:43;98656.22;;;8.61;100.00
31761;BME280;18335;51.486;7.562;2024-01-15T09:43:12;98660.41;;;9.00;100.00
31761;BME280;18335;51.486;7.562;2024-01-15T09:45:39;98656.59;;;9.15;100.00
31761;BME280;18335;51.486;7.562;2024-01-15T09:48:07;98658.28;;;9.37;100.00
31761;BME280;18335;51.486;7.562;2024-01-15T09:50:35;98666.50;;;9.23;100.00
31761;BME280;18335;51.486;7.562;2024-01-15T09:53:02;98668.47;;;8.51;100.00
31761;BME280;18335;51.486;7.562;2024-01-15T09:55:30;98667.38;;;8.66;100.00
31761;BME280;18335;51.486;7.562;2024-01-15T09:58:00;98676.34;;;8.31;100.00
31761;BME280;18335;51.486;7.562;2024-01-15T10:00:28;98672.75;;;9.17;100.00
31761;BME280;18335;51.486;7.562;2024-01-15T10:02:56;98673.31;;;9.33;100.00
31761;BME280;18335;51.486;7.562;2024-01-15T10:05:23;98673.75;;;9.16;100.00
31761;BME280;18335;51.486;7.562;2024-01-15T10:07:53;98676.28;;;8.96;100.00
31761;BME280;18335;51.486;7.562;2024-01-15T10:10:21;98665.66;;;9.22;100.00
31761;BME280;18335;51.486;7.562;2024-01-15T10:12:49;98665.81;;;9.97;100.00
31761;BME280;18335;51.486;7.562;2024-01-15T10:15:16;98670.13;;;9.09;100.00
31761;BME280;18335;51.486;7.562;2024-01-15T10:17:43;98674.75;;;8.37;100.00
31761;BME280;18335;51.486;7.562;2024-01-15T10:20:10;98662.47;;;9.40;100.00
31761;BME280;18335;51.486;7.562;2024-01-15T10:22:40;98657.81;;;8.92;100.00
31761;BME280;18335;51.486;7.562;2024-01-15T10:25:11;98664.44;;;9.80;100.00
31761;BME280;18335;51.486;7.562;2024-01-15T10:27:38;98655.66;;;9.29;100.00
31761;BME280;18335;51.486;7.562;2024-01-15T10:30:06;98664.19;;;8.99;100.00
31761;BME280;18335;51.486;7.562;2024-01-15T10:32:34;98659.91;;;9.87;100.00
31761;BME280;18335;51.486;7.562;2024-01-15T10:35:01;98656.66;;;8.79;100.00
31761;BME280;18335;51.486;7.562;2024-01-15T10:37:28;98657.44;;;9.16;100.00
31761;BME280;18335;51.486;7.562;2024-01-15T10:40:01;98650.81;;;9.46;100.00
31761;BME280;18335;51.486;7.562;2024-01-15T10:42:30;98656.66;;;9.01;100.00
31761;BME280;18335;51.486;7.562;2024-01-15T10:44:57;98646.63;;;9.50;100.00
31761;BME280;18335;51.486;7.562;2024-01-15T10:47:24;98655.84;;;8.64;100.00
31761;BME280;18335;51.486;7.562;2024-01-15T10:49:51;98663.59;;;9.03;100.00
31761;BME280;18335;51.486;7.562;2024-01-15T10:52:19;98668.38;;;9.01;100.00
31761;BME280;18335;51.486;7.562;2024-01-15T10:54:46;98658.06;;;9.18;100.00
31761;BME280;18335;51.486;7.562;2024-01-15T10:57:15;98671.81;;;9.10;100.00
31761;BME280;18335;51.486;7.562;2024-01-15T10:59:44;98662.22;;;8.71;100.00
31761;BME280;18335;51.486;7.562;2024-01-15T11:02:14;98651.91;;;9.30;100.00
31761;BME280;18335;51.486;7.562;2024-01-15T11:04:41;98649.50;;;9.42;100.00
31761;BME280;18335;51.486;7.562;2024-01-15T11:07:10;98660.31;;;9.84;100.00
31761;BME280;18335;51.486;7.562;2024-01-15T11:09:37;98661.25;;;8.14;100.00
31761;BME280;18335;51.486;7.562;2024-01-15T11:12:09;98652.75;;;9.31;100.00
31761;BME280;18335;51.486;7.562;2024-01-15T11:14:39;98665.00;;;8.13;100.00
31761;BME280;18335;51.486;7.562;2024-01-15T11:17:10;98654.44;;;9.32;100.00
31761;BME280;18335;51.486;7.562;2024-01-15T11:19:38;98655.22;;;9.26;100.00
31761;BME280;18335;51.486;7.562;2024-01-15T11:22:07;98650.75;;;10.01;100.00
31761;BME280;18335;51.486;7.562;2024-01-15T11:24:36;98661.97;;;9.30;100.00
31761;BME280;18335;51.486;7.562;2024-01-15T11:27:03;98655.13;;;9.96;100.00
31761;BME280;18335;51.486;7.562;2024-01-15T11:29:31;98655.09;;;9.89;100.00
31761;BME280;18335;51.486;7.562;2024-01-15T11:32:03;98663.13;;;9.21;100.00
31761;BME280;18335;51.486;7.562;2024-01-15T11:34:57;98658.16;;;9.03;100.00
31761;BME280;18335;51.486;7.562;2024-01-15T11:37:26;98660.41;;;9.21;100.00
31761;BME280;18335;51.486;7.562;2024-01-15T11:39:54;98658.69;;;9.41;100.00
31761;BME280;18335;51.486;7.562;2024-01-15T11:42:22;98653.41;;;9.12;100.00
31761;BME280;18335;51.486;7.562;2024-01-15T11:44:49;98653.22;;;9.34;100.00
31761;BME280;18335;51.486;7.562;2024-01-15T11:47:30;98648.66;;;9.97;100.00
31761;BME280;18335;51.486;7.562;2024-01-15T11:50:07;98660.78;;;8.75;100.00
31761;BME280;18335;51.486;7.562;2024-01-15T11:52:36;98656.03;;;9.20;100.00
31761;BME280;18335;51.486;7.562;2024-01-15T11:55:11;98659.22;;;9.51;100.00
31761;BME280;18335;51.486;7.562;2024-01-15T11:57:45;98645.94;;;8.57;100.00
31761;BME280;18335;51.486;7.562;2024-01-15T12:00:13;98658.13;;;8.46;100.00
31761;BME280;18335;51.486;7.562;2024-01-15T12:02:41;98666.19;;;8.25;100.00
31761;BME280;18335;51.486;7.562;2024-01-15T12:05:09;98654.25;;;9.12;100.00
31761;BME280;18335;51.486;7.562;2024-01-15T12:07:38;98656.84;;;9.20;100.00
31761;BME280;18335;51.486;7.562;2024-01-15T12:10:08;98660.31;;;9.84;100.00
31761;BME280;18335;51.486;7.562;2024-01-15T12:12:45;98660.47;;;9.06;100.00
31761;BME280;18335;51.486;7.562;2024-01-15T12:15:15;98652.47;;;9.47;100.00
31761;BME280;18335;51.486;7.562;2024-01-15T12:17:42;98652.63;;;8.97;100.00
31761;BME280;18335;51.486;7.562;2024-01-15T12:20:11;98655.34;;;8.97;100.00
31761;BME280;18335;51.486;7.562;2024-01-15T12:22:38;98648.50;;;9.22;100.00
31761;BME280;18335;51.486;7.562;2024-01-15T12:25:06;98642.63;;;9.46;100.00
31761;BME280;18335;51.486;7.562;2024-01-15T12:27:33;98644.84;;;9.91;100.00
31761;BME280;18335;51.486;7.562;2024-01-15T12:30:00;98647.00;;;9.19;100.00
31761;BME280;18335;51.486;7.562;2024-01-15T12:32:28;98652.63;;;9.39;100.00
31761;BME280;18335;51.486;7.562;2024-01-15T12:34:55;98674.84;;;8.14;100.00
31761;BME280;18335;51.486;7.562;2024-01-15T12:37:24;98668.16;;;8.81;100.00
31761;BME280;18335;51.486;7.562;2024-01-15T12:39:52;98667.50;;;8.58;100.00
31761;BME280;18335;51.486;7.562;2024-01-15T12:42:21;98654.72;;;7.79;100.00
31761;BME280;18335;51.486;7.562;2024-01-15T12:44:48;98668.78;;;8.98;100.00
31761;BME280;18335;51.486;7.562;2024-01-15T12:47:15;98653.09;;;9.70;100.00
31761;BME280;18335;51.486;7.562;2024-01-15T12:49:46;98662.75;;;9.24;100.00
31761;BME280;18335;51.486;7.562;2024-01-15T12:52:13;98650.59;;;9.20;100.00
31761;BME280;18335;51.486;7.562;2024-01-15T12:54:41;98659.47;;;8.50;100.00
31761;BME280;18335;51.486;7.562;2024-01-15T12:57:08;98674.78;;;9.15;100.00
31761;BME280;18335;51.486;7.562;2024-01-15T12:59:35;98657.25;;;10.00;100.00
31761;BME280;18335;51.486;7.562;2024-01-15T13:02:02;98658.75;;;8.99;100.00